Hampton Bridge — 9HA3280 — position and weather

sailwx.info

Track history (hours):
 
Tides and Currents Weather Stations Pressure Air Temp Water Temp Dewpoint Dewpoint Depression Visibility Wind Speed Wind Dir Waves Ship Positions

Hampton Bridge

Last reported at 2018-Jan-22 03:28 UTC. Time now 2018-Jan-22 16:03 UTC.
Position S 00°14' W 051°19'.

Length 223 m; draft 7.6 m.

Type: Cargo ship. MMSI: 229373000.

Date/timePositionNaut miles runAvg speedWind from/ knotsBaromVisibWave heightAir tempDewpointWater temp
2018-Jan-22 03:28S 00°14' W 051°19'511.0
2018-Jan-22 03:00S 00°10' W 051°15'511.1
2018-Jan-22 02:30S 00°07' W 051°11'510.0
2018-Jan-22 02:00S 00°04' W 051°07'0 0.7
2018-Jan-22 01:30S 00°04' W 051°06'0 0.1
2018-Jan-22 01:00S 00°04' W 051°06'0 0.0
2018-Jan-22 00:30S 00°04' W 051°06'0 0.2
2018-Jan-22 00:00S 00°04' W 051°06'0 0.2
2018-Jan-21 23:30S 00°04' W 051°07'0 0.2
2018-Jan-21 23:00S 00°04' W 051°07'0 0.8
2018-Jan-21 22:27S 00°04' W 051°06'0 0.4
2018-Jan-21 21:58S 00°04' W 051°07'0 0.1
2018-Jan-21 21:28S 00°04' W 051°07'0 0.0
2018-Jan-21 20:58S 00°04' W 051°07'0 0.0
2018-Jan-21 20:28S 00°04' W 051°07'0 0.0
2018-Jan-21 19:52S 00°04' W 051°07'0 0.0
2018-Jan-21 19:28S 00°04' W 051°07'0 0.0
2018-Jan-21 18:58S 00°04' W 051°07'0 0.4
2018-Jan-21 18:28S 00°04' W 051°06'0 0.2
2018-Jan-21 17:58S 00°04' W 051°06'0 0.0
2018-Jan-21 17:28S 00°04' W 051°06'0 0.1
2018-Jan-21 16:58S 00°04' W 051°06'0 0.1
2018-Jan-21 16:28S 00°04' W 051°06'0 0.0
2018-Jan-21 15:58S 00°04' W 051°06'0 0.0
2018-Jan-21 15:28S 00°04' W 051°06'0 0.0
2018-Jan-21 14:58S 00°04' W 051°06'0 0.0
2018-Jan-21 14:28S 00°04' W 051°06'0 0.0
2018-Jan-21 13:58S 00°04' W 051°06'0 0.0
2018-Jan-21 13:28S 00°04' W 051°06'0 0.0
2018-Jan-21 12:58S 00°04' W 051°06'0 0.0
2018-Jan-21 12:28S 00°04' W 051°06'0 0.0
2018-Jan-21 11:46S 00°04' W 051°06'0 0.0
2018-Jan-21 11:28S 00°04' W 051°06'0 0.1
2018-Jan-21 10:58S 00°04' W 051°06'0 0.3
2018-Jan-21 10:28S 00°04' W 051°07'0 0.1
2018-Jan-21 09:58S 00°04' W 051°07'0 0.1
2018-Jan-21 09:28S 00°04' W 051°07'0 0.0
2018-Jan-21 08:58S 00°04' W 051°07'0 0.0
2018-Jan-21 08:28S 00°04' W 051°07'0 0.0
2018-Jan-21 07:58S 00°04' W 051°07'0 0.0
2018-Jan-21 07:28S 00°04' W 051°07'0 0.1
2018-Jan-21 06:58S 00°04' W 051°07'0 0.2
2018-Jan-21 06:28S 00°04' W 051°07'0 0.4
2018-Jan-21 06:00S 00°04' W 051°06'2 3.4
2018-Jan-21 05:29S 00°03' W 051°05'4 8.4
2018-Jan-21 05:00S 00°00' W 051°02'611.2
2018-Jan-21 04:30N 00°05' W 050°59'510.3
2018-Jan-21 04:00N 00°09' W 050°56'5 9.7
2018-Jan-21 03:30N 00°10' W 050°51'5 9.8
2018-Jan-21 03:00N 00°11' W 050°47'6 9.5
2018-Jan-21 02:21N 00°13' W 050°41'  
2018-Jan-12 06:53N 27°48' W 015°18'512.5
2018-Jan-12 06:30N 27°53' W 015°17'612.5
2018-Jan-12 06:01N 27°59' W 015°18'612.2
2018-Jan-12 05:31N 28°04' W 015°21'3 4.7
2018-Jan-12 04:53N 28°06' W 015°24'0 0.0
2018-Jan-12 04:23N 28°06' W 015°24'0 0.0
2018-Jan-12 03:53N 28°06' W 015°24'  
Track history (hours):
 
Tides and Currents Weather Stations Pressure Air Temp Water Temp Dewpoint Dewpoint Depression Visibility Wind Speed Wind Dir Waves Ship Positions

Hampton Bridge

Last reported at 2018-Jan-22 03:28 UTC. Time now 2018-Jan-22 16:03 UTC.
Position S 00°14' W 051°19'.

Length 223 m; draft 7.6 m.

Type: Cargo ship. MMSI: 229373000.

Date/timePositionNaut miles runAvg speedWind from/ knotsBaromVisibWave heightAir tempDewpointWater temp
2018-Jan-22 03:28S 00°14' W 051°19'511.0
2018-Jan-22 03:00S 00°10' W 051°15'511.1
2018-Jan-22 02:30S 00°07' W 051°11'510.0
2018-Jan-22 02:00S 00°04' W 051°07'0 0.7
2018-Jan-22 01:30S 00°04' W 051°06'0 0.1
2018-Jan-22 01:00S 00°04' W 051°06'0 0.0
2018-Jan-22 00:30S 00°04' W 051°06'0 0.2
2018-Jan-22 00:00S 00°04' W 051°06'0 0.2
2018-Jan-21 23:30S 00°04' W 051°07'0 0.2
2018-Jan-21 23:00S 00°04' W 051°07'0 0.8
2018-Jan-21 22:27S 00°04' W 051°06'0 0.4
2018-Jan-21 21:58S 00°04' W 051°07'0 0.1
2018-Jan-21 21:28S 00°04' W 051°07'0 0.0
2018-Jan-21 20:58S 00°04' W 051°07'0 0.0
2018-Jan-21 20:28S 00°04' W 051°07'0 0.0
2018-Jan-21 19:52S 00°04' W 051°07'0 0.0
2018-Jan-21 19:28S 00°04' W 051°07'0 0.0
2018-Jan-21 18:58S 00°04' W 051°07'0 0.4
2018-Jan-21 18:28S 00°04' W 051°06'0 0.2
2018-Jan-21 17:58S 00°04' W 051°06'0 0.0
2018-Jan-21 17:28S 00°04' W 051°06'0 0.1
2018-Jan-21 16:58S 00°04' W 051°06'0 0.1
2018-Jan-21 16:28S 00°04' W 051°06'0 0.0
2018-Jan-21 15:58S 00°04' W 051°06'0 0.0
2018-Jan-21 15:28S 00°04' W 051°06'0 0.0
2018-Jan-21 14:58S 00°04' W 051°06'0 0.0
2018-Jan-21 14:28S 00°04' W 051°06'0 0.0
2018-Jan-21 13:58S 00°04' W 051°06'0 0.0
2018-Jan-21 13:28S 00°04' W 051°06'0 0.0
2018-Jan-21 12:58S 00°04' W 051°06'0 0.0
2018-Jan-21 12:28S 00°04' W 051°06'0 0.0
2018-Jan-21 11:46S 00°04' W 051°06'0 0.0
2018-Jan-21 11:28S 00°04' W 051°06'0 0.1
2018-Jan-21 10:58S 00°04' W 051°06'0 0.3
2018-Jan-21 10:28S 00°04' W 051°07'0 0.1
2018-Jan-21 09:58S 00°04' W 051°07'0 0.1
2018-Jan-21 09:28S 00°04' W 051°07'0 0.0
2018-Jan-21 08:58S 00°04' W 051°07'0 0.0
2018-Jan-21 08:28S 00°04' W 051°07'0 0.0
2018-Jan-21 07:58S 00°04' W 051°07'0 0.0
2018-Jan-21 07:28S 00°04' W 051°07'0 0.1
2018-Jan-21 06:58S 00°04' W 051°07'0 0.2
2018-Jan-21 06:28S 00°04' W 051°07'0 0.4
2018-Jan-21 06:00S 00°04' W 051°06'2 3.4
2018-Jan-21 05:29S 00°03' W 051°05'4 8.4
2018-Jan-21 05:00S 00°00' W 051°02'611.2
2018-Jan-21 04:30N 00°05' W 050°59'510.3
2018-Jan-21 04:00N 00°09' W 050°56'5 9.7
2018-Jan-21 03:30N 00°10' W 050°51'5 9.8
2018-Jan-21 03:00N 00°11' W 050°47'6 9.5
2018-Jan-21 02:21N 00°13' W 050°41'  
2018-Jan-12 06:53N 27°48' W 015°18'512.5
2018-Jan-12 06:30N 27°53' W 015°17'612.5
2018-Jan-12 06:01N 27°59' W 015°18'612.2
2018-Jan-12 05:31N 28°04' W 015°21'3 4.7
2018-Jan-12 04:53N 28°06' W 015°24'0 0.0
2018-Jan-12 04:23N 28°06' W 015°24'0 0.0
2018-Jan-12 03:53N 28°06' W 015°24'  

Dump ship's entire track history